sensor_id;sensor_type;location;lat;lon;timestamp;pressure;altitude;pressure_sealevel;temperature;humidity
37202;BME280;37799;52.390;6.136;2023-01-24T00:01:56;103929.41;;;2.98;100.00
37202;BME280;37799;52.390;6.136;2023-01-24T00:04:21;103931.28;;;3.01;100.00
37202;BME280;37799;52.390;6.136;2023-01-24T00:06:46;103924.66;;;3.04;100.00
37202;BME280;37799;52.390;6.136;2023-01-24T00:09:11;103921.28;;;3.05;100.00
37202;BME280;37799;52.390;6.136;2023-01-24T00:11:37;103926.41;;;3.05;100.00
37202;BME280;37799;52.390;6.136;2023-01-24T00:14:02;103923.13;;;3.08;100.00
37202;BME280;37799;52.390;6.136;2023-01-24T00:16:27;103929.19;;;3.10;100.00
37202;BME280;37799;52.390;6.136;2023-01-24T00:18:53;103927.44;;;3.09;100.00
37202;BME280;37799;52.390;6.136;2023-01-24T00:21:22;103925.53;;;3.05;100.00
37202;BME280;37799;52.390;6.136;2023-01-24T00:23:51;103922.00;;;3.03;100.00
37202;BME280;37799;52.390;6.136;2023-01-24T00:26:18;103914.50;;;3.22;100.00
37202;BME280;37799;52.390;6.136;2023-01-24T00:28:44;103920.41;;;3.05;100.00
37202;BME280;37799;52.390;6.136;2023-01-24T00:31:10;103920.25;;;3.02;100.00
37202;BME280;37799;52.390;6.136;2023-01-24T00:33:36;103913.19;;;2.97;100.00
37202;BME280;37799;52.390;6.136;2023-01-24T00:36:02;103919.75;;;2.92;100.00
37202;BME280;37799;52.390;6.136;2023-01-24T00:38:29;103913.81;;;2.93;100.00
37202;BME280;37799;52.390;6.136;2023-01-24T00:40:55;103925.56;;;2.90;100.00
37202;BME280;37799;52.390;6.136;2023-01-24T00:43:20;103920.19;;;2.85;100.00
37202;BME280;37799;52.390;6.136;2023-01-24T00:45:45;103914.91;;;2.82;100.00
37202;BME280;37799;52.390;6.136;2023-01-24T00:48:11;103908.78;;;2.95;100.00
37202;BME280;37799;52.390;6.136;2023-01-24T00:50:37;103904.03;;;2.86;100.00
37202;BME280;37799;52.390;6.136;2023-01-24T00:53:03;103914.47;;;2.89;100.00
37202;BME280;37799;52.390;6.136;2023-01-24T00:55:29;103906.50;;;3.00;100.00
37202;BME280;37799;52.390;6.136;2023-01-24T00:57:54;103909.88;;;2.84;100.00
37202;BME280;37799;52.390;6.136;2023-01-24T01:00:20;103910.75;;;2.84;100.00
37202;BME280;37799;52.390;6.136;2023-01-24T01:02:46;103906.50;;;2.85;100.00
37202;BME280;37799;52.390;6.136;2023-01-24T01:05:12;103903.56;;;2.93;100.00
37202;BME280;37799;52.390;6.136;2023-01-24T01:07:37;103907.19;;;2.97;100.00
37202;BME280;37799;52.390;6.136;2023-01-24T01:10:03;103903.06;;;2.84;100.00
37202;BME280;37799;52.390;6.136;2023-01-24T01:12:28;103903.06;;;2.84;100.00
37202;BME280;37799;52.390;6.136;2023-01-24T01:14:54;103903.88;;;2.83;100.00
37202;BME280;37799;52.390;6.136;2023-01-24T01:17:19;103907.06;;;2.79;100.00
37202;BME280;37799;52.390;6.136;2023-01-24T01:19:44;103903.25;;;2.87;100.00
37202;BME280;37799;52.390;6.136;2023-01-24T01:22:10;103910.63;;;2.97;100.00
37202;BME280;37799;52.390;6.136;2023-01-24T01:24:36;103915.34;;;2.90;100.00
37202;BME280;37799;52.390;6.136;2023-01-24T01:27:01;103908.53;;;2.90;100.00
37202;BME280;37799;52.390;6.136;2023-01-24T01:29:27;103905.03;;;3.05;100.00
37202;BME280;37799;52.390;6.136;2023-01-24T01:31:52;103913.00;;;2.94;100.00
37202;BME280;37799;52.390;6.136;2023-01-24T01:34:18;103902.63;;;2.91;100.00
37202;BME280;37799;52.390;6.136;2023-01-24T01:36:43;103904.63;;;2.97;100.00
37202;BME280;37799;52.390;6.136;2023-01-24T01:39:08;103906.13;;;2.93;100.00
37202;BME280;37799;52.390;6.136;2023-01-24T01:41:34;103896.94;;;2.97;100.00
37202;BME280;37799;52.390;6.136;2023-01-24T01:44:21;103901.25;;;2.98;100.00
37202;BME280;37799;52.390;6.136;2023-01-24T01:47:32;103898.31;;;2.90;100.00
37202;BME280;37799;52.390;6.136;2023-01-24T01:52:42;103895.75;;;2.90;100.00
37202;BME280;37799;52.390;6.136;2023-01-24T01:55:12;103905.19;;;2.91;100.00
37202;BME280;37799;52.390;6.136;2023-01-24T01:57:38;103898.97;;;3.03;100.00
37202;BME280;37799;52.390;6.136;2023-01-24T02:00:12;103898.38;;;2.92;100.00
37202;BME280;37799;52.390;6.136;2023-01-24T02:02:41;103906.13;;;2.93;100.00
37202;BME280;37799;52.390;6.136;2023-01-24T02:05:10;103901.38;;;2.85;100.00
37202;BME280;37799;52.390;6.136;2023-01-24T02:07:42;103899.41;;;2.95;100.00
37202;BME280;37799;52.390;6.136;2023-01-24T02:10:09;103893.63;;;2.83;100.00
37202;BME280;37799;52.390;6.136;2023-01-24T02:12:44;103898.13;;;2.87;100.00
37202;BME280;37799;52.390;6.136;2023-01-24T02:15:14;103900.50;;;2.84;100.00
37202;BME280;37799;52.390;6.136;2023-01-24T02:17:59;103908.31;;;2.71;100.00
37202;BME280;37799;52.390;6.136;2023-01-24T02:20:37;103893.97;;;2.89;100.00
37202;BME280;37799;52.390;6.136;2023-01-24T02:26:38;103901.31;;;2.83;100.00
37202;BME280;37799;52.390;6.136;2023-01-24T02:29:06;103904.06;;;2.72;100.00
37202;BME280;37799;52.390;6.136;2023-01-24T02:31:51;103908.25;;;2.86;100.00
37202;BME280;37799;52.390;6.136;2023-01-24T02:34:17;103908.50;;;2.74;100.00
37202;BME280;37799;52.390;6.136;2023-01-24T02:36:42;103905.38;;;2.80;100.00
37202;BME280;37799;52.390;6.136;2023-01-24T02:39:12;103905.94;;;2.74;100.00
37202;BME280;37799;52.390;6.136;2023-01-24T02:41:42;103904.94;;;2.72;100.00
37202;BME280;37799;52.390;6.136;2023-01-24T02:44:11;103901.78;;;2.76;100.00
37202;BME280;37799;52.390;6.136;2023-01-24T02:46:38;103898.88;;;2.70;100.00
37202;BME280;37799;52.390;6.136;2023-01-24T02:49:07;103907.94;;;2.80;100.00
37202;BME280;37799;52.390;6.136;2023-01-24T02:51:33;103896.88;;;2.64;100.00
37202;BME280;37799;52.390;6.136;2023-01-24T02:54:17;103894.22;;;2.63;100.00
37202;BME280;37799;52.390;6.136;2023-01-24T02:56:42;103894.56;;;2.69;100.00
37202;BME280;37799;52.390;6.136;2023-01-24T02:59:26;103892.94;;;2.71;100.00
37202;BME280;37799;52.390;6.136;2023-01-24T03:01:52;103884.00;;;2.63;100.00
37202;BME280;37799;52.390;6.136;2023-01-24T03:04:17;103886.34;;;2.60;100.00
37202;BME280;37799;52.390;6.136;2023-01-24T03:06:43;103889.78;;;2.75;100.00
37202;BME280;37799;52.390;6.136;2023-01-24T03:09:08;103880.38;;;2.59;100.00
37202;BME280;37799;52.390;6.136;2023-01-24T03:11:47;103872.97;;;2.64;100.00
37202;BME280;37799;52.390;6.136;2023-01-24T03:14:16;103881.00;;;2.55;100.00
37202;BME280;37799;52.390;6.136;2023-01-24T03:17:00;103882.44;;;2.50;100.00
37202;BME280;37799;52.390;6.136;2023-01-24T03:19:44;103885.59;;;2.61;100.00
37202;BME280;37799;52.390;6.136;2023-01-24T03:22:29;103884.16;;;2.66;100.00
37202;BME280;37799;52.390;6.136;2023-01-24T03:25:13;103875.25;;;2.59;100.00
37202;BME280;37799;52.390;6.136;2023-01-24T03:28:05;103882.91;;;2.59;100.00
37202;BME280;37799;52.390;6.136;2023-01-24T03:30:51;103882.25;;;2.62;100.00
37202;BME280;37799;52.390;6.136;2023-01-24T03:33:35;103893.06;;;2.58;100.00
37202;BME280;37799;52.390;6.136;2023-01-24T03:36:18;103881.09;;;2.42;100.00
37202;BME280;37799;52.390;6.136;2023-01-24T03:38:56;103878.75;;;2.30;100.00
37202;BME280;37799;52.390;6.136;2023-01-24T03:41:40;103877.50;;;2.39;100.00
37202;BME280;37799;52.390;6.136;2023-01-24T03:44:05;103876.63;;;2.38;100.00
37202;BME280;37799;52.390;6.136;2023-01-24T03:46:31;103872.03;;;2.32;100.00
37202;BME280;37799;52.390;6.136;2023-01-24T03:48:56;103889.25;;;2.35;100.00
37202;BME280;37799;52.390;6.136;2023-01-24T03:51:22;103888.25;;;2.48;100.00
37202;BME280;37799;52.390;6.136;2023-01-24T03:54:06;103880.69;;;2.34;100.00
37202;BME280;37799;52.390;6.136;2023-01-24T03:56:31;103886.41;;;2.30;100.00
37202;BME280;37799;52.390;6.136;2023-01-24T03:58:56;103889.81;;;2.46;100.00
37202;BME280;37799;52.390;6.136;2023-01-24T04:01:21;103889.50;;;2.40;100.00
37202;BME280;37799;52.390;6.136;2023-01-24T04:03:47;103894.78;;;2.28;100.00
37202;BME280;37799;52.390;6.136;2023-01-24T04:06:12;103889.84;;;2.31;100.00
37202;BME280;37799;52.390;6.136;2023-01-24T04:08:38;103892.84;;;2.39;100.00
37202;BME280;37799;52.390;6.136;2023-01-24T04:11:03;103903.34;;;2.28;100.00
37202;BME280;37799;52.390;6.136;2023-01-24T04:13:30;103902.47;;;2.28;100.00
37202;BME280;37799;52.390;6.136;2023-01-24T04:15:55;103899.03;;;2.27;100.00
37202;BME280;37799;52.390;6.136;2023-01-24T04:18:21;103902.53;;;2.29;100.00
37202;BME280;37799;52.390;6.136;2023-01-24T04:20:46;103902.38;;;2.26;100.00
37202;BME280;37799;52.390;6.136;2023-01-24T04:23:11;103908.22;;;2.24;100.00
37202;BME280;37799;52.390;6.136;2023-01-24T04:25:37;103903.09;;;2.39;100.00
37202;BME280;37799;52.390;6.136;2023-01-24T04:28:02;103906.78;;;2.44;100.00
37202;BME280;37799;52.390;6.136;2023-01-24T04:30:27;103911.63;;;2.39;100.00
37202;BME280;37799;52.390;6.136;2023-01-24T04:32:53;103903.41;;;2.45;100.00
37202;BME280;37799;52.390;6.136;2023-01-24T04:35:27;103912.44;;;2.38;100.00
37202;BME280;37799;52.390;6.136;2023-01-24T04:37:53;103907.91;;;2.34;100.00
37202;BME280;37799;52.390;6.136;2023-01-24T04:40:21;103913.16;;;2.35;100.00
37202;BME280;37799;52.390;6.136;2023-01-24T04:42:46;103910.06;;;2.26;100.00
37202;BME280;37799;52.390;6.136;2023-01-24T04:45:12;103915.16;;;2.26;100.00
37202;BME280;37799;52.390;6.136;2023-01-24T04:47:37;103912.06;;;2.32;100.00
37202;BME280;37799;52.390;6.136;2023-01-24T04:50:03;103915.16;;;2.26;100.00
37202;BME280;37799;52.390;6.136;2023-01-24T04:52:28;103909.81;;;2.22;100.00
37202;BME280;37799;52.390;6.136;2023-01-24T04:54:54;103909.34;;;2.29;100.00
37202;BME280;37799;52.390;6.136;2023-01-24T04:57:19;103901.84;;;2.17;100.00
37202;BME280;37799;52.390;6.136;2023-01-24T04:59:44;103899.91;;;2.13;100.00
37202;BME280;37799;52.390;6.136;2023-01-24T05:02:09;103913.75;;;2.31;100.00
37202;BME280;37799;52.390;6.136;2023-01-24T05:04:35;103922.28;;;2.32;100.00
37202;BME280;37799;52.390;6.136;2023-01-24T05:07:01;103920.03;;;2.22;100.00
37202;BME280;37799;52.390;6.136;2023-01-24T05:09:26;103922.28;;;2.17;100.00
37202;BME280;37799;52.390;6.136;2023-01-24T05:11:52;103911.09;;;2.30;100.00
37202;BME280;37799;52.390;6.136;2023-01-24T05:14:17;103912.44;;;2.23;100.00
37202;BME280;37799;52.390;6.136;2023-01-24T05:16:42;103917.72;;;2.12;100.00
37202;BME280;37799;52.390;6.136;2023-01-24T05:19:07;103922.75;;;2.25;100.00
37202;BME280;37799;52.390;6.136;2023-01-24T05:21:33;103917.00;;;2.14;100.00
37202;BME280;37799;52.390;6.136;2023-01-24T05:23:58;103911.91;;;2.14;100.00
37202;BME280;37799;52.390;6.136;2023-01-24T05:26:25;103914.28;;;2.11;100.00
37202;BME280;37799;52.390;6.136;2023-01-24T05:28:51;103921.25;;;2.14;100.00
37202;BME280;37799;52.390;6.136;2023-01-24T05:31:17;103919.13;;;2.06;100.00
37202;BME280;37799;52.390;6.136;2023-01-24T05:33:42;103924.94;;;2.04;100.00
37202;BME280;37799;52.390;6.136;2023-01-24T05:36:11;103921.59;;;2.05;100.00
37202;BME280;37799;52.390;6.136;2023-01-24T05:38:37;103923.56;;;2.09;100.00
37202;BME280;37799;52.390;6.136;2023-01-24T05:41:05;103916.84;;;2.11;100.00
37202;BME280;37799;52.390;6.136;2023-01-24T05:43:31;103920.00;;;2.07;100.00
37202;BME280;37799;52.390;6.136;2023-01-24T05:46:02;103915.25;;;2.13;100.00
37202;BME280;37799;52.390;6.136;2023-01-24T05:48:27;103919.50;;;2.13;100.00
37202;BME280;37799;52.390;6.136;2023-01-24T05:51:01;103917.97;;;2.16;100.00
37202;BME280;37799;52.390;6.136;2023-01-24T05:53:28;103924.59;;;2.13;100.00
37202;BME280;37799;52.390;6.136;2023-01-24T05:55:58;103923.25;;;2.19;100.00
37202;BME280;37799;52.390;6.136;2023-01-24T05:58:29;103921.34;;;2.15;100.00
37202;BME280;37799;52.390;6.136;2023-01-24T06:00:55;103927.25;;;2.14;100.00
37202;BME280;37799;52.390;6.136;2023-01-24T06:03:21;103925.91;;;2.06;100.00
37202;BME280;37799;52.390;6.136;2023-01-24T06:05:52;103932.00;;;2.23;100.00
37202;BME280;37799;52.390;6.136;2023-01-24T06:08:20;103924.50;;;2.11;100.00
37202;BME280;37799;52.390;6.136;2023-01-24T06:10:45;103923.56;;;2.09;100.00
37202;BME280;37799;52.390;6.136;2023-01-24T06:13:12;103926.69;;;2.05;100.00
37202;BME280;37799;52.390;6.136;2023-01-24T06:15:38;103935.63;;;2.26;100.00
37202;BME280;37799;52.390;6.136;2023-01-24T06:18:04;103924.22;;;2.21;100.00
37202;BME280;37799;52.390;6.136;2023-01-24T06:20:30;103925.31;;;2.10;100.00
37202;BME280;37799;52.390;6.136;2023-01-24T06:23:02;103931.97;;;2.08;100.00
37202;BME280;37799;52.390;6.136;2023-01-24T06:25:28;103934.38;;;2.05;100.00
37202;BME280;37799;52.390;6.136;2023-01-24T06:27:54;103930.41;;;1.95;100.00
37202;BME280;37799;52.390;6.136;2023-01-24T06:30:19;103928.13;;;2.00;100.00
37202;BME280;37799;52.390;6.136;2023-01-24T06:33:03;103930.22;;;1.92;100.00
37202;BME280;37799;52.390;6.136;2023-01-24T06:38:31;103931.97;;;1.93;100.00
37202;BME280;37799;52.390;6.136;2023-01-24T06:40:59;103939.53;;;1.92;100.00
37202;BME280;37799;52.390;6.136;2023-01-24T06:43:25;103939.53;;;1.92;100.00
37202;BME280;37799;52.390;6.136;2023-01-24T06:45:51;103940.88;;;1.85;100.00
37202;BME280;37799;52.390;6.136;2023-01-24T06:48:16;103939.53;;;1.92;100.00
37202;BME280;37799;52.390;6.136;2023-01-24T06:50:41;103947.59;;;1.98;100.00
37202;BME280;37799;52.390;6.136;2023-01-24T06:53:07;103949.53;;;2.17;100.00
37202;BME280;37799;52.390;6.136;2023-01-24T06:55:35;103948.56;;;2.00;100.00
37202;BME280;37799;52.390;6.136;2023-01-24T06:58:03;103945.00;;;1.83;100.00
37202;BME280;37799;52.390;6.136;2023-01-24T07:00:28;103945.28;;;1.88;100.00
37202;BME280;37799;52.390;6.136;2023-01-24T07:03:07;103951.97;;;1.86;100.00
37202;BME280;37799;52.390;6.136;2023-01-24T07:05:34;103949.25;;;1.83;100.00
37202;BME280;37799;52.390;6.136;2023-01-24T07:08:00;103953.25;;;1.79;100.00
37202;BME280;37799;52.390;6.136;2023-01-24T07:10:25;103947.66;;;1.85;100.00
37202;BME280;37799;52.390;6.136;2023-01-24T07:12:51;103947.84;;;1.88;100.00
37202;BME280;37799;52.390;6.136;2023-01-24T07:15:16;103955.84;;;1.94;100.00
37202;BME280;37799;52.390;6.136;2023-01-24T07:17:42;103955.78;;;2.07;100.00
37202;BME280;37799;52.390;6.136;2023-01-24T07:20:09;103961.34;;;2.00;100.00
37202;BME280;37799;52.390;6.136;2023-01-24T07:22:37;103961.44;;;2.16;100.00
37202;BME280;37799;52.390;6.136;2023-01-24T07:25:04;103972.53;;;2.02;100.00
37202;BME280;37799;52.390;6.136;2023-01-24T07:27:29;103965.13;;;2.06;100.00
37202;BME280;37799;52.390;6.136;2023-01-24T07:29:55;103974.47;;;2.06;100.00
37202;BME280;37799;52.390;6.136;2023-01-24T07:32:20;103970.94;;;2.04;100.00
37202;BME280;37799;52.390;6.136;2023-01-24T07:34:45;103971.09;;;1.92;100.00
37202;BME280;37799;52.390;6.136;2023-01-24T07:37:11;103965.97;;;1.92;100.00
37202;BME280;37799;52.390;6.136;2023-01-24T07:39:36;103971.81;;;1.90;100.00
37202;BME280;37799;52.390;6.136;2023-01-24T07:42:01;103976.13;;;1.91;100.00
37202;BME280;37799;52.390;6.136;2023-01-24T07:44:27;103984.50;;;1.88;100.00
37202;BME280;37799;52.390;6.136;2023-01-24T07:46:52;103975.47;;;1.80;100.00
37202;BME280;37799;52.390;6.136;2023-01-24T07:49:17;103982.03;;;2.04;100.00
37202;BME280;37799;52.390;6.136;2023-01-24T07:51:43;103995.19;;;1.96;100.00
37202;BME280;37799;52.390;6.136;2023-01-24T07:54:10;103991.03;;;1.98;100.00
37202;BME280;37799;52.390;6.136;2023-01-24T07:56:35;103989.81;;;2.06;100.00
37202;BME280;37799;52.390;6.136;2023-01-24T07:59:01;103992.88;;;2.00;100.00
37202;BME280;37799;52.390;6.136;2023-01-24T08:01:26;103990.75;;;1.93;100.00
37202;BME280;37799;52.390;6.136;2023-01-24T08:03:55;103992.97;;;2.02;100.00
37202;BME280;37799;52.390;6.136;2023-01-24T08:06:21;103994.03;;;2.05;100.00
37202;BME280;37799;52.390;6.136;2023-01-24T08:08:46;103992.81;;;1.99;100.00
37202;BME280;37799;52.390;6.136;2023-01-24T08:11:12;103994.56;;;2.00;100.00
37202;BME280;37799;52.390;6.136;2023-01-24T08:13:41;104002.41;;;2.03;100.00
37202;BME280;37799;52.390;6.136;2023-01-24T08:16:06;103998.44;;;2.08;100.00
37202;BME280;37799;52.390;6.136;2023-01-24T08:18:32;104003.66;;;2.10;100.00
37202;BME280;37799;52.390;6.136;2023-01-24T08:20:57;104002.91;;;2.25;100.00
37202;BME280;37799;52.390;6.136;2023-01-24T08:23:22;104000.47;;;1.99;100.00
37202;BME280;37799;52.390;6.136;2023-01-24T08:25:48;104001.06;;;1.95;100.00
37202;BME280;37799;52.390;6.136;2023-01-24T08:28:13;104009.28;;;2.04;100.00
37202;BME280;37799;52.390;6.136;2023-01-24T08:30:38;104009.81;;;1.98;100.00
37202;BME280;37799;52.390;6.136;2023-01-24T08:33:05;104004.97;;;2.03;100.00
37202;BME280;37799;52.390;6.136;2023-01-24T08:35:32;104009.75;;;2.12;100.00
37202;BME280;37799;52.390;6.136;2023-01-24T08:37:57;104010.91;;;2.17;100.00
37202;BME280;37799;52.390;6.136;2023-01-24T08:40:23;104016.00;;;2.17;100.00
37202;BME280;37799;52.390;6.136;2023-01-24T08:42:48;104009.75;;;2.12;100.00
37202;BME280;37799;52.390;6.136;2023-01-24T08:45:14;104013.28;;;2.14;100.00
37202;BME280;37799;52.390;6.136;2023-01-24T08:47:39;104015.38;;;2.21;100.00
37202;BME280;37799;52.390;6.136;2023-01-24T08:50:05;104020.06;;;2.13;100.00
37202;BME280;37799;52.390;6.136;2023-01-24T08:52:30;104023.34;;;2.25;100.00
37202;BME280;37799;52.390;6.136;2023-01-24T08:54:56;104035.44;;;2.28;100.00
37202;BME280;37799;52.390;6.136;2023-01-24T08:57:21;104028.78;;;2.17;100.00
37202;BME280;37799;52.390;6.136;2023-01-24T08:59:47;104028.63;;;2.28;100.00
37202;BME280;37799;52.390;6.136;2023-01-24T09:02:14;104039.03;;;2.31;100.00
37202;BME280;37799;52.390;6.136;2023-01-24T09:04:40;104036.84;;;2.23;100.00
37202;BME280;37799;52.390;6.136;2023-01-24T09:07:08;104039.91;;;2.17;100.00
37202;BME280;37799;52.390;6.136;2023-01-24T09:09:33;104041.84;;;2.21;100.00
37202;BME280;37799;52.390;6.136;2023-01-24T09:11:58;104038.69;;;2.25;100.00
37202;BME280;37799;52.390;6.136;2023-01-24T09:14:24;104038.13;;;2.16;100.00
37202;BME280;37799;52.390;6.136;2023-01-24T09:16:49;104049.94;;;2.14;100.00
37202;BME280;37799;52.390;6.136;2023-01-24T09:19:14;104046.81;;;2.33;100.00
37202;BME280;37799;52.390;6.136;2023-01-24T09:21:40;104042.94;;;2.40;100.00
37202;BME280;37799;52.390;6.136;2023-01-24T09:24:06;104051.75;;;2.30;100.00
37202;BME280;37799;52.390;6.136;2023-01-24T09:26:31;104048.19;;;2.13;100.00
37202;BME280;37799;52.390;6.136;2023-01-24T09:28:56;104043.25;;;2.16;100.00
37202;BME280;37799;52.390;6.136;2023-01-24T09:31:22;104050.59;;;2.25;100.00
37202;BME280;37799;52.390;6.136;2023-01-24T09:33:47;104051.88;;;2.18;100.00
37202;BME280;37799;52.390;6.136;2023-01-24T09:36:12;104047.50;;;2.30;100.00
37202;BME280;37799;52.390;6.136;2023-01-24T09:38:38;104052.63;;;2.30;100.00
37202;BME280;37799;52.390;6.136;2023-01-24T09:41:38;104048.22;;;2.28;100.00
37202;BME280;37799;52.390;6.136;2023-01-24T09:44:17;104045.56;;;2.26;100.00
37202;BME280;37799;52.390;6.136;2023-01-24T09:46:51;104043.91;;;2.42;100.00
37202;BME280;37799;52.390;6.136;2023-01-24T09:49:33;104048.22;;;2.43;100.00
37202;BME280;37799;52.390;6.136;2023-01-24T09:52:00;104049.28;;;2.46;100.00
37202;BME280;37799;52.390;6.136;2023-01-24T09:54:37;104048.78;;;2.52;100.00
37202;BME280;37799;52.390;6.136;2023-01-24T09:57:11;104052.66;;;2.60;100.00
37202;BME280;37799;52.390;6.136;2023-01-24T09:59:44;104053.72;;;2.63;100.00
37202;BME280;37799;52.390;6.136;2023-01-24T10:02:19;104054.00;;;2.68;100.00
37202;BME280;37799;52.390;6.136;2023-01-24T10:04:46;104053.72;;;2.63;100.00
37202;BME280;37799;52.390;6.136;2023-01-24T10:07:56;104050.38;;;2.50;100.00
37202;BME280;37799;52.390;6.136;2023-01-24T10:10:58;104049.50;;;2.64;100.00
37202;BME280;37799;52.390;6.136;2023-01-24T10:16:28;104041.91;;;2.80;100.00
37202;BME280;37799;52.390;6.136;2023-01-24T10:19:06;104054.00;;;2.68;100.00
37202;BME280;37799;52.390;6.136;2023-01-24T10:24:23;104056.38;;;2.65;100.00
37202;BME280;37799;52.390;6.136;2023-01-24T10:26:51;104050.22;;;2.76;100.00
37202;BME280;37799;52.390;6.136;2023-01-24T10:29:19;104051.25;;;2.65;100.00
37202;BME280;37799;52.390;6.136;2023-01-24T10:32:05;104053.19;;;2.69;100.00
37202;BME280;37799;52.390;6.136;2023-01-24T10:34:35;104052.47;;;2.72;100.00
37202;BME280;37799;52.390;6.136;2023-01-24T10:37:14;104051.50;;;2.55;100.00
37202;BME280;37799;52.390;6.136;2023-01-24T10:39:43;104050.47;;;2.51;100.00
37202;BME280;37799;52.390;6.136;2023-01-24T10:42:28;104049.66;;;2.67;100.00
37202;BME280;37799;52.390;6.136;2023-01-24T10:44:59;104047.72;;;2.63;100.00
37202;BME280;37799;52.390;6.136;2023-01-24T10:49:57;104045.97;;;2.62;100.00
37202;BME280;37799;52.390;6.136;2023-01-24T10:52:23;104036.88;;;2.67;100.00
37202;BME280;37799;52.390;6.136;2023-01-24T10:54:51;104039.59;;;2.70;100.00
37202;BME280;37799;52.390;6.136;2023-01-24T10:57:32;104026.00;;;2.71;100.00
37202;BME280;37799;52.390;6.136;2023-01-24T11:00:29;104027.69;;;2.71;100.00
37202;BME280;37799;52.390;6.136;2023-01-24T11:02:58;104021.44;;;2.65;100.00
37202;BME280;37799;52.390;6.136;2023-01-24T11:05:25;104027.59;;;2.69;100.00
37202;BME280;37799;52.390;6.136;2023-01-24T11:08:00;104018.63;;;2.76;100.00
37202;BME280;37799;52.390;6.136;2023-01-24T11:10:28;104016.47;;;2.83;100.00
37202;BME280;37799;52.390;6.136;2023-01-24T11:12:57;104015.59;;;2.68;100.00
37202;BME280;37799;52.390;6.136;2023-01-24T11:15:29;104016.41;;;2.67;100.00
37202;BME280;37799;52.390;6.136;2023-01-24T11:17:58;104012.63;;;2.75;100.00
37202;BME280;37799;52.390;6.136;2023-01-24T11:20:30;104013.84;;;2.82;100.00
37202;BME280;37799;52.390;6.136;2023-01-24T11:23:05;104016.47;;;2.83;100.00
37202;BME280;37799;52.390;6.136;2023-01-24T11:25:31;104010.06;;;2.75;100.00
37202;BME280;37799;52.390;6.136;2023-01-24T11:27:56;104009.25;;;2.76;100.00
37202;BME280;37799;52.390;6.136;2023-01-24T11:30:22;104004.56;;;2.84;100.00
37202;BME280;37799;52.390;6.136;2023-01-24T11:35:42;103995.72;;;2.93;100.00
37202;BME280;37799;52.390;6.136;2023-01-24T11:40:52;103988.56;;;3.03;100.00
37202;BME280;37799;52.390;6.136;2023-01-24T11:48:46;103987.78;;;3.04;100.00
37202;BME280;37799;52.390;6.136;2023-01-24T11:57:30;103984.56;;;2.77;100.00
37202;BME280;37799;52.390;6.136;2023-01-24T12:00:16;103980.31;;;2.77;100.00
37202;BME280;37799;52.390;6.136;2023-01-24T12:08:34;103977.41;;;3.17;100.00
37202;BME280;37799;52.390;6.136;2023-01-24T12:11:05;103980.97;;;3.04;100.00
37202;BME280;37799;52.390;6.136;2023-01-24T12:13:43;103972.81;;;3.11;100.00
37202;BME280;37799;52.390;6.136;2023-01-24T12:19:15;103973.13;;;2.86;100.00
37202;BME280;37799;52.390;6.136;2023-01-24T12:21:48;103955.41;;;2.89;100.00
37202;BME280;37799;52.390;6.136;2023-01-24T12:24:24;103956.63;;;2.96;100.00
37202;BME280;37799;52.390;6.136;2023-01-24T12:26:53;103965.38;;;3.00;100.00
37202;BME280;37799;52.390;6.136;2023-01-24T12:29:42;103959.25;;;2.97;100.00
37202;BME280;37799;52.390;6.136;2023-01-24T12:32:21;103958.13;;;2.92;100.00
37202;BME280;37799;52.390;6.136;2023-01-24T12:35:10;103958.22;;;2.94;100.00
37202;BME280;37799;52.390;6.136;2023-01-24T12:38:05;103949.72;;;2.95;100.00
37202;BME280;37799;52.390;6.136;2023-01-24T12:40:46;103952.06;;;2.90;100.00
37202;BME280;37799;52.390;6.136;2023-01-24T12:43:19;103948.53;;;2.88;100.00
37202;BME280;37799;52.390;6.136;2023-01-24T12:48:37;103943.22;;;3.00;100.00
37202;BME280;37799;52.390;6.136;2023-01-24T12:51:49;103933.59;;;3.12;100.00
37202;BME280;37799;52.390;6.136;2023-01-24T12:54:11;103936.59;;;3.36;100.00
37202;BME280;37799;52.390;6.136;2023-01-24T12:56:50;103929.41;;;3.13;100.00
37202;BME280;37799;52.390;6.136;2023-01-24T12:59:23;103935.47;;;3.15;100.00
37202;BME280;37799;52.390;6.136;2023-01-24T13:08:28;103929.53;;;2.85;100.00
37202;BME280;37799;52.390;6.136;2023-01-24T13:13:14;103924.69;;;2.89;100.00
37202;BME280;37799;52.390;6.136;2023-01-24T13:16:21;103922.19;;;2.75;100.00
37202;BME280;37799;52.390;6.136;2023-01-24T13:18:54;103924.34;;;2.83;100.00
37202;BME280;37799;52.390;6.136;2023-01-24T13:21:24;103921.28;;;2.74;100.00
37202;BME280;37799;52.390;6.136;2023-01-24T13:32:38;103912.47;;;2.69;100.00
37202;BME280;37799;52.390;6.136;2023-01-24T13:35:24;103909.09;;;2.70;100.00
37202;BME280;37799;52.390;6.136;2023-01-24T13:37:55;103906.53;;;2.70;100.00
37202;BME280;37799;52.390;6.136;2023-01-24T13:40:27;103910.38;;;2.62;100.00
37202;BME280;37799;52.390;6.136;2023-01-24T13:42:56;103907.19;;;2.66;100.00
37202;BME280;37799;52.390;6.136;2023-01-24T13:47:55;103905.06;;;2.59;100.00
37202;BME280;37799;52.390;6.136;2023-01-24T13:50:22;103904.91;;;2.56;100.00
37202;BME280;37799;52.390;6.136;2023-01-24T13:52:52;103896.88;;;2.64;100.00
37202;BME280;37799;52.390;6.136;2023-01-24T13:57:44;103899.00;;;2.57;100.00
37202;BME280;37799;52.390;6.136;2023-01-24T14:10:47;103895.47;;;2.55;100.00
37202;BME280;37799;52.390;6.136;2023-01-24T14:16:03;103901.91;;;2.63;100.00
37202;BME280;37799;52.390;6.136;2023-01-24T14:18:59;103901.81;;;2.61;100.00
37202;BME280;37799;52.390;6.136;2023-01-24T14:21:33;103895.81;;;2.61;100.00
37202;BME280;37799;52.390;6.136;2023-01-24T14:26:59;103903.50;;;2.61;100.00
37202;BME280;37799;52.390;6.136;2023-01-24T14:29:36;103898.53;;;2.64;100.00